sensor_id;sensor_type;location;lat;lon;timestamp;pressure;altitude;pressure_sealevel;temperature;humidity
43257;BME280;28860;43.212;27.934;2022-10-16T00:01:26;101807.56;;;19.22;42.26
43257;BME280;28860;43.212;27.934;2022-10-16T00:03:52;101818.94;;;19.27;42.00
43257;BME280;28860;43.212;27.934;2022-10-16T00:06:20;101789.16;;;19.14;42.04
43257;BME280;28860;43.212;27.934;2022-10-16T00:08:47;101810.03;;;19.25;41.91
43257;BME280;28860;43.212;27.934;2022-10-16T00:11:20;101796.22;;;19.17;41.62
43257;BME280;28860;43.212;27.934;2022-10-16T00:13:47;101802.88;;;19.24;41.58
43257;BME280;28860;43.212;27.934;2022-10-16T00:16:14;101832.81;;;19.35;41.71
43257;BME280;28860;43.212;27.934;2022-10-16T00:18:40;101830.44;;;19.31;41.31
43257;BME280;28860;43.212;27.934;2022-10-16T00:21:15;101833.41;;;19.28;41.38
43257;BME280;28860;43.212;27.934;2022-10-16T00:23:41;101803.00;;;19.11;41.16
43257;BME280;28860;43.212;27.934;2022-10-16T00:26:10;101814.47;;;19.15;41.29
43257;BME280;28860;43.212;27.934;2022-10-16T00:28:37;101793.94;;;18.99;41.25
43257;BME280;28860;43.212;27.934;2022-10-16T00:31:08;101790.25;;;19.00;41.36
43257;BME280;28860;43.212;27.934;2022-10-16T00:33:34;101825.84;;;19.08;41.17
43257;BME280;28860;43.212;27.934;2022-10-16T00:36:01;101824.13;;;19.07;41.21
43257;BME280;28860;43.212;27.934;2022-10-16T00:38:27;101824.97;;;19.08;41.30
43257;BME280;28860;43.212;27.934;2022-10-16T00:40:52;101800.22;;;18.88;41.29
43257;BME280;28860;43.212;27.934;2022-10-16T00:43:43;101802.94;;;18.88;41.19
43257;BME280;28860;43.212;27.934;2022-10-16T00:49:10;101800.09;;;18.90;41.09
43257;BME280;28860;43.212;27.934;2022-10-16T00:51:42;101803.72;;;19.02;41.17
43257;BME280;28860;43.212;27.934;2022-10-16T00:54:15;101808.28;;;19.01;41.31
43257;BME280;28860;43.212;27.934;2022-10-16T00:56:43;101812.38;;;19.07;40.98
43257;BME280;28860;43.212;27.934;2022-10-16T00:59:25;101786.88;;;18.85;41.12
43257;BME280;28860;43.212;27.934;2022-10-16T01:01:52;101810.22;;;18.88;41.09
43257;BME280;28860;43.212;27.934;2022-10-16T01:04:18;101800.31;;;18.87;40.97
43257;BME280;28860;43.212;27.934;2022-10-16T01:12:51;101822.81;;;18.77;41.54
43257;BME280;28860;43.212;27.934;2022-10-16T01:15:48;101827.22;;;18.67;41.45
43257;BME280;28860;43.212;27.934;2022-10-16T01:21:06;101832.34;;;18.83;41.44
43257;BME280;28860;43.212;27.934;2022-10-16T01:26:20;101841.09;;;18.87;40.92
43257;BME280;28860;43.212;27.934;2022-10-16T01:28:54;101840.59;;;18.81;41.20
43257;BME280;28860;43.212;27.934;2022-10-16T01:31:25;101849.72;;;18.80;40.94
43257;BME280;28860;43.212;27.934;2022-10-16T01:34:15;101858.13;;;18.77;41.15
43257;BME280;28860;43.212;27.934;2022-10-16T01:36:50;101834.63;;;18.65;40.91
43257;BME280;28860;43.212;27.934;2022-10-16T01:39:20;101841.78;;;18.66;40.76
43257;BME280;28860;43.212;27.934;2022-10-16T01:41:54;101857.59;;;18.61;41.02
43257;BME280;28860;43.212;27.934;2022-10-16T01:44:24;101855.81;;;18.48;41.29
43257;BME280;28860;43.212;27.934;2022-10-16T01:46:52;101858.47;;;18.37;41.68
43257;BME280;28860;43.212;27.934;2022-10-16T01:49:20;101845.56;;;18.28;41.40
43257;BME280;28860;43.212;27.934;2022-10-16T01:51:49;101846.94;;;18.33;41.56
43257;BME280;28860;43.212;27.934;2022-10-16T01:54:18;101860.66;;;18.32;41.59
43257;BME280;28860;43.212;27.934;2022-10-16T01:56:48;101838.94;;;18.32;41.15
43257;BME280;28860;43.212;27.934;2022-10-16T01:59:19;101856.22;;;18.31;41.44
43257;BME280;28860;43.212;27.934;2022-10-16T02:01:50;101835.91;;;18.23;41.21
43257;BME280;28860;43.212;27.934;2022-10-16T02:04:23;101849.09;;;18.41;41.12
43257;BME280;28860;43.212;27.934;2022-10-16T02:06:52;101854.75;;;18.38;40.96
43257;BME280;28860;43.212;27.934;2022-10-16T02:09:18;101853.03;;;18.37;40.87
43257;BME280;28860;43.212;27.934;2022-10-16T02:11:44;101860.59;;;18.45;41.07
43257;BME280;28860;43.212;27.934;2022-10-16T02:14:09;101832.22;;;18.24;40.94
43257;BME280;28860;43.212;27.934;2022-10-16T02:16:41;101852.97;;;18.25;40.98
43257;BME280;28860;43.212;27.934;2022-10-16T02:19:07;101826.97;;;18.10;40.80
43257;BME280;28860;43.212;27.934;2022-10-16T02:21:43;101868.56;;;18.35;40.60
43257;BME280;28860;43.212;27.934;2022-10-16T02:24:12;101836.16;;;18.20;40.61
43257;BME280;28860;43.212;27.934;2022-10-16T02:26:43;101868.47;;;18.36;40.27
43257;BME280;28860;43.212;27.934;2022-10-16T02:29:14;101839.44;;;18.13;40.07
43257;BME280;28860;43.212;27.934;2022-10-16T02:31:46;101868.56;;;17.97;40.28
43257;BME280;28860;43.212;27.934;2022-10-16T02:34:14;101864.25;;;17.82;40.73
43257;BME280;28860;43.212;27.934;2022-10-16T02:36:42;101873.31;;;17.70;40.93
43257;BME280;28860;43.212;27.934;2022-10-16T02:39:09;101838.59;;;17.49;40.88
43257;BME280;28860;43.212;27.934;2022-10-16T02:41:35;101849.31;;;17.63;40.46
43257;BME280;28860;43.212;27.934;2022-10-16T02:44:01;101855.00;;;17.34;40.65
43257;BME280;28860;43.212;27.934;2022-10-16T02:46:26;101840.88;;;16.90;41.40
43257;BME280;28860;43.212;27.934;2022-10-16T02:48:52;101863.47;;;17.43;41.02
43257;BME280;28860;43.212;27.934;2022-10-16T02:51:18;101882.53;;;17.54;40.61
43257;BME280;28860;43.212;27.934;2022-10-16T02:53:43;101886.88;;;17.70;40.36
43257;BME280;28860;43.212;27.934;2022-10-16T02:56:12;101880.66;;;17.67;40.26
43257;BME280;28860;43.212;27.934;2022-10-16T02:58:37;101891.22;;;17.59;40.68
43257;BME280;28860;43.212;27.934;2022-10-16T03:01:03;101889.72;;;17.55;40.27
43257;BME280;28860;43.212;27.934;2022-10-16T03:03:32;101887.75;;;17.31;40.76
43257;BME280;28860;43.212;27.934;2022-10-16T03:05:57;101852.09;;;17.11;40.74
43257;BME280;28860;43.212;27.934;2022-10-16T03:08:23;101864.97;;;17.21;40.85
43257;BME280;28860;43.212;27.934;2022-10-16T03:10:51;101865.53;;;17.26;40.61
43257;BME280;28860;43.212;27.934;2022-10-16T03:13:17;101861.72;;;17.16;40.53
43257;BME280;28860;43.212;27.934;2022-10-16T03:15:43;101896.19;;;17.39;40.51
43257;BME280;28860;43.212;27.934;2022-10-16T03:18:09;101864.56;;;17.27;40.61
43257;BME280;28860;43.212;27.934;2022-10-16T03:20:34;101868.44;;;17.23;40.52
43257;BME280;28860;43.212;27.934;2022-10-16T03:23:00;101879.28;;;17.23;40.83
43257;BME280;28860;43.212;27.934;2022-10-16T03:25:27;101881.47;;;17.44;40.49
43257;BME280;28860;43.212;27.934;2022-10-16T03:27:53;101864.31;;;17.43;40.15
43257;BME280;28860;43.212;27.934;2022-10-16T03:30:19;101874.19;;;17.31;40.75
43257;BME280;28860;43.212;27.934;2022-10-16T03:32:44;101890.78;;;17.39;40.66
43257;BME280;28860;43.212;27.934;2022-10-16T03:35:10;101879.00;;;17.40;40.55
43257;BME280;28860;43.212;27.934;2022-10-16T03:37:36;101877.78;;;17.45;40.62
43257;BME280;28860;43.212;27.934;2022-10-16T03:40:03;101900.22;;;17.47;40.56
43257;BME280;28860;43.212;27.934;2022-10-16T03:42:28;101896.19;;;17.39;40.46
43257;BME280;28860;43.212;27.934;2022-10-16T03:44:54;101910.75;;;17.38;40.65
43257;BME280;28860;43.212;27.934;2022-10-16T03:47:19;101901.00;;;17.36;40.67
43257;BME280;28860;43.212;27.934;2022-10-16T03:49:47;101897.09;;;17.40;40.40
43257;BME280;28860;43.212;27.934;2022-10-16T03:52:13;101875.41;;;17.27;40.17
43257;BME280;28860;43.212;27.934;2022-10-16T03:54:39;101905.13;;;17.42;40.49
43257;BME280;28860;43.212;27.934;2022-10-16T03:57:04;101886.44;;;17.50;40.27
43257;BME280;28860;43.212;27.934;2022-10-16T03:59:30;101864.22;;;17.45;40.10
43257;BME280;28860;43.212;27.934;2022-10-16T04:01:56;101904.09;;;17.68;40.21
43257;BME280;28860;43.212;27.934;2022-10-16T04:04:21;101869.97;;;17.40;40.07
43257;BME280;28860;43.212;27.934;2022-10-16T04:06:47;101896.88;;;17.30;40.46
43257;BME280;28860;43.212;27.934;2022-10-16T04:09:12;101894.28;;;17.42;40.42
43257;BME280;28860;43.212;27.934;2022-10-16T04:11:38;101900.56;;;17.55;40.17
43257;BME280;28860;43.212;27.934;2022-10-16T04:14:04;101897.28;;;17.50;40.06
43257;BME280;28860;43.212;27.934;2022-10-16T04:16:30;101898.38;;;17.60;39.95
43257;BME280;28860;43.212;27.934;2022-10-16T04:18:55;101916.84;;;17.55;40.02
43257;BME280;28860;43.212;27.934;2022-10-16T04:21:22;101905.13;;;17.54;39.70
43257;BME280;28860;43.212;27.934;2022-10-16T04:23:48;101891.22;;;17.59;39.63
43257;BME280;28860;43.212;27.934;2022-10-16T04:26:14;101902.28;;;17.43;40.24
43257;BME280;28860;43.212;27.934;2022-10-16T04:28:40;101923.78;;;17.59;40.04
43257;BME280;28860;43.212;27.934;2022-10-16T04:31:06;101903.06;;;17.58;39.67
43257;BME280;28860;43.212;27.934;2022-10-16T04:33:33;101895.56;;;17.49;39.62
43257;BME280;28860;43.212;27.934;2022-10-16T04:36:00;101910.97;;;17.48;39.89
43257;BME280;28860;43.212;27.934;2022-10-16T04:38:26;101931.34;;;17.54;39.77
43257;BME280;28860;43.212;27.934;2022-10-16T04:40:52;101917.91;;;17.39;39.97
43257;BME280;28860;43.212;27.934;2022-10-16T04:43:19;101906.63;;;17.46;39.76
43257;BME280;28860;43.212;27.934;2022-10-16T04:45:44;101933.31;;;17.52;39.72
43257;BME280;28860;43.212;27.934;2022-10-16T04:48:10;101931.16;;;17.57;39.63
43257;BME280;28860;43.212;27.934;2022-10-16T04:50:36;101937.03;;;17.64;39.38
43257;BME280;28860;43.212;27.934;2022-10-16T04:53:01;101916.84;;;17.29;39.77
43257;BME280;28860;43.212;27.934;2022-10-16T04:55:27;101921.47;;;17.14;40.27
43257;BME280;28860;43.212;27.934;2022-10-16T04:57:53;101937.66;;;17.42;39.91
43257;BME280;28860;43.212;27.934;2022-10-16T05:00:18;101938.44;;;17.44;40.05
43257;BME280;28860;43.212;27.934;2022-10-16T05:02:44;101937.00;;;17.25;40.21
43257;BME280;28860;43.212;27.934;2022-10-16T05:05:12;101945.47;;;17.33;39.97
43257;BME280;28860;43.212;27.934;2022-10-16T05:07:38;101950.25;;;17.43;39.84
43257;BME280;28860;43.212;27.934;2022-10-16T05:10:03;101955.88;;;17.39;40.07
43257;BME280;28860;43.212;27.934;2022-10-16T05:12:29;101943.94;;;17.29;40.20
43257;BME280;28860;43.212;27.934;2022-10-16T05:14:55;101957.19;;;17.47;39.99
43257;BME280;28860;43.212;27.934;2022-10-16T05:17:24;101930.16;;;17.32;39.95
43257;BME280;28860;43.212;27.934;2022-10-16T05:19:50;101977.59;;;17.65;39.77
43257;BME280;28860;43.212;27.934;2022-10-16T05:22:16;101953.28;;;17.38;40.05
43257;BME280;28860;43.212;27.934;2022-10-16T05:24:41;101982.78;;;17.68;39.83
43257;BME280;28860;43.212;27.934;2022-10-16T05:27:07;101979.75;;;17.60;39.85
43257;BME280;28860;43.212;27.934;2022-10-16T05:29:36;101946.34;;;17.47;39.46
43257;BME280;28860;43.212;27.934;2022-10-16T05:32:02;101976.28;;;17.58;39.67
43257;BME280;28860;43.212;27.934;2022-10-16T05:34:28;101991.25;;;17.51;39.75
43257;BME280;28860;43.212;27.934;2022-10-16T05:36:54;102001.25;;;17.63;39.94
43257;BME280;28860;43.212;27.934;2022-10-16T05:39:19;101989.19;;;17.67;39.48
43257;BME280;28860;43.212;27.934;2022-10-16T05:41:45;102005.19;;;17.85;39.47
43257;BME280;28860;43.212;27.934;2022-10-16T05:44:11;102003.44;;;17.84;39.48
43257;BME280;28860;43.212;27.934;2022-10-16T05:46:39;101988.00;;;17.85;39.21
43257;BME280;28860;43.212;27.934;2022-10-16T05:49:05;102006.34;;;17.94;39.47
43257;BME280;28860;43.212;27.934;2022-10-16T05:51:30;102005.25;;;17.96;39.07
43257;BME280;28860;43.212;27.934;2022-10-16T05:53:56;102006.78;;;18.01;39.33
43257;BME280;28860;43.212;27.934;2022-10-16T05:56:21;102006.69;;;18.02;39.17
43257;BME280;28860;43.212;27.934;2022-10-16T05:58:48;102011.00;;;17.79;39.24
43257;BME280;28860;43.212;27.934;2022-10-16T06:01:16;102007.88;;;17.85;39.49
43257;BME280;28860;43.212;27.934;2022-10-16T06:03:43;102019.50;;;17.87;39.44
43257;BME280;28860;43.212;27.934;2022-10-16T06:06:19;102025.78;;;18.01;39.41
43257;BME280;28860;43.212;27.934;2022-10-16T06:08:47;102019.03;;;17.93;39.35
43257;BME280;28860;43.212;27.934;2022-10-16T06:11:20;102021.97;;;17.90;39.54
43257;BME280;28860;43.212;27.934;2022-10-16T06:13:49;102003.00;;;17.90;39.12
43257;BME280;28860;43.212;27.934;2022-10-16T06:16:15;102009.09;;;18.07;39.13
43257;BME280;28860;43.212;27.934;2022-10-16T06:18:41;102040.34;;;18.25;38.87
43257;BME280;28860;43.212;27.934;2022-10-16T06:21:12;102028.63;;;18.12;39.07
43257;BME280;28860;43.212;27.934;2022-10-16T06:23:39;101998.84;;;17.97;39.01
43257;BME280;28860;43.212;27.934;2022-10-16T06:26:10;102042.53;;;18.20;39.06
43257;BME280;28860;43.212;27.934;2022-10-16T06:28:35;102032.88;;;18.16;39.28
43257;BME280;28860;43.212;27.934;2022-10-16T06:31:02;102019.50;;;18.13;39.14
43257;BME280;28860;43.212;27.934;2022-10-16T06:33:28;102016.03;;;18.24;39.35
43257;BME280;28860;43.212;27.934;2022-10-16T06:36:07;102044.78;;;18.27;39.58
43257;BME280;28860;43.212;27.934;2022-10-16T06:38:34;102039.03;;;18.44;39.49
43257;BME280;28860;43.212;27.934;2022-10-16T06:41:01;102020.16;;;18.30;39.65
43257;BME280;28860;43.212;27.934;2022-10-16T06:43:28;102017.63;;;18.27;39.39
43257;BME280;28860;43.212;27.934;2022-10-16T06:45:58;102034.63;;;18.55;39.64
43257;BME280;28860;43.212;27.934;2022-10-16T06:48:24;102043.84;;;18.65;39.42
43257;BME280;28860;43.212;27.934;2022-10-16T06:51:19;102060.75;;;18.81;39.26
43257;BME280;28860;43.212;27.934;2022-10-16T06:53:50;102059.34;;;18.76;39.19
43257;BME280;28860;43.212;27.934;2022-10-16T06:56:18;102070.19;;;18.89;39.37
43257;BME280;28860;43.212;27.934;2022-10-16T06:58:44;102067.63;;;18.74;39.63
43257;BME280;28860;43.212;27.934;2022-10-16T07:01:11;102064.50;;;18.92;39.38
43257;BME280;28860;43.212;27.934;2022-10-16T07:03:38;102069.97;;;18.92;39.42
43257;BME280;28860;43.212;27.934;2022-10-16T07:06:06;102061.47;;;18.97;39.44
43257;BME280;28860;43.212;27.934;2022-10-16T07:08:33;102079.59;;;18.96;39.35
43257;BME280;28860;43.212;27.934;2022-10-16T07:11:00;102070.63;;;18.83;39.53
43257;BME280;28860;43.212;27.934;2022-10-16T07:13:27;102073.34;;;19.20;38.97
43257;BME280;28860;43.212;27.934;2022-10-16T07:15:55;102072.66;;;19.05;39.12
43257;BME280;28860;43.212;27.934;2022-10-16T07:18:20;102043.63;;;19.05;38.91
43257;BME280;28860;43.212;27.934;2022-10-16T07:20:47;102080.69;;;19.31;38.67
43257;BME280;28860;43.212;27.934;2022-10-16T07:23:12;102075.66;;;19.37;38.44
43257;BME280;28860;43.212;27.934;2022-10-16T07:25:38;102074.19;;;19.45;38.58
43257;BME280;28860;43.212;27.934;2022-10-16T07:28:07;102068.53;;;19.48;38.31
43257;BME280;28860;43.212;27.934;2022-10-16T07:30:35;102083.53;;;19.65;38.10
43257;BME280;28860;43.212;27.934;2022-10-16T07:33:02;102083.91;;;19.72;37.84
43257;BME280;28860;43.212;27.934;2022-10-16T07:35:28;102082.47;;;19.79;37.81
43257;BME280;28860;43.212;27.934;2022-10-16T07:37:53;102068.56;;;19.71;37.87
43257;BME280;28860;43.212;27.934;2022-10-16T07:40:22;102069.56;;;19.70;37.48
43257;BME280;28860;43.212;27.934;2022-10-16T07:42:52;102088.97;;;19.65;37.71
43257;BME280;28860;43.212;27.934;2022-10-16T07:45:20;102069.31;;;19.73;37.28
43257;BME280;28860;43.212;27.934;2022-10-16T07:47:46;102085.78;;;19.83;37.38
43257;BME280;28860;43.212;27.934;2022-10-16T07:50:17;102085.78;;;19.83;37.64
43257;BME280;28860;43.212;27.934;2022-10-16T07:52:45;102099.38;;;20.07;37.19
43257;BME280;28860;43.212;27.934;2022-10-16T07:55:12;102112.00;;;20.08;36.83
43257;BME280;28860;43.212;27.934;2022-10-16T07:57:40;102092.41;;;20.03;36.43
43257;BME280;28860;43.212;27.934;2022-10-16T08:00:07;102070.88;;;20.00;36.59
43257;BME280;28860;43.212;27.934;2022-10-16T08:02:32;102092.06;;;20.07;36.02
43257;BME280;28860;43.212;27.934;2022-10-16T08:04:58;102092.94;;;20.19;35.93
43257;BME280;28860;43.212;27.934;2022-10-16T08:07:24;102094.31;;;20.14;36.10
43257;BME280;28860;43.212;27.934;2022-10-16T08:09:49;102094.69;;;20.20;36.04
43257;BME280;28860;43.212;27.934;2022-10-16T08:12:17;102090.00;;;20.22;36.25
43257;BME280;28860;43.212;27.934;2022-10-16T08:14:43;102064.72;;;20.09;36.26
43257;BME280;28860;43.212;27.934;2022-10-16T08:17:13;102070.91;;;20.22;36.16
43257;BME280;28860;43.212;27.934;2022-10-16T08:19:39;102085.41;;;20.34;35.60
43257;BME280;28860;43.212;27.934;2022-10-16T08:22:04;102062.97;;;20.31;35.53
43257;BME280;28860;43.212;27.934;2022-10-16T08:24:30;102075.13;;;20.38;35.23
43257;BME280;28860;43.212;27.934;2022-10-16T08:27:01;102069.94;;;20.35;35.49
43257;BME280;28860;43.212;27.934;2022-10-16T08:29:29;102066.44;;;20.33;35.44
43257;BME280;28860;43.212;27.934;2022-10-16T08:31:57;102062.00;;;20.32;35.36
43257;BME280;28860;43.212;27.934;2022-10-16T08:34:23;102078.34;;;20.32;35.25
43257;BME280;28860;43.212;27.934;2022-10-16T08:36:55;102085.78;;;20.41;35.08
43257;BME280;28860;43.212;27.934;2022-10-16T08:39:20;102072.25;;;20.40;34.91
43257;BME280;28860;43.212;27.934;2022-10-16T08:47:52;102099.88;;;20.69;34.74
43257;BME280;28860;43.212;27.934;2022-10-16T08:50:29;102106.81;;;20.73;34.08
43257;BME280;28860;43.212;27.934;2022-10-16T08:52:55;102098.63;;;20.62;34.45
43257;BME280;28860;43.212;27.934;2022-10-16T08:58:17;102106.06;;;20.71;34.22
43257;BME280;28860;43.212;27.934;2022-10-16T09:00:54;102094.44;;;20.46;34.24
43257;BME280;28860;43.212;27.934;2022-10-16T09:06:29;102089.47;;;20.63;33.85
43257;BME280;28860;43.212;27.934;2022-10-16T09:09:05;102106.69;;;20.75;34.13
43257;BME280;28860;43.212;27.934;2022-10-16T09:17:34;102098.13;;;20.91;33.96
43257;BME280;28860;43.212;27.934;2022-10-16T09:22:53;102098.00;;;21.04;33.98
43257;BME280;28860;43.212;27.934;2022-10-16T09:25:21;102100.56;;;21.05;33.54
43257;BME280;28860;43.212;27.934;2022-10-16T09:27:52;102098.34;;;21.11;33.21
43257;BME280;28860;43.212;27.934;2022-10-16T09:30:22;102097.63;;;21.09;33.24
43257;BME280;28860;43.212;27.934;2022-10-16T09:32:52;102101.91;;;21.23;33.24
43257;BME280;28860;43.212;27.934;2022-10-16T09:35:27;102094.88;;;21.09;33.00
43257;BME280;28860;43.212;27.934;2022-10-16T09:37:56;102111.25;;;21.09;32.78
43257;BME280;28860;43.212;27.934;2022-10-16T09:40:28;102104.50;;;21.24;32.52
43257;BME280;28860;43.212;27.934;2022-10-16T09:43:16;102078.59;;;21.18;32.47
43257;BME280;28860;43.212;27.934;2022-10-16T09:45:57;102099.06;;;21.24;32.80
43257;BME280;28860;43.212;27.934;2022-10-16T09:48:26;102111.16;;;21.31;32.26
43257;BME280;28860;43.212;27.934;2022-10-16T09:51:03;102108.66;;;21.40;32.24
43257;BME280;28860;43.212;27.934;2022-10-16T09:53:43;102096.69;;;21.52;31.86
43257;BME280;28860;43.212;27.934;2022-10-16T09:56:10;102096.28;;;21.68;32.15
43257;BME280;28860;43.212;27.934;2022-10-16T09:58:42;102099.13;;;21.67;32.26
43257;BME280;28860;43.212;27.934;2022-10-16T10:01:13;102087.97;;;21.70;31.78
43257;BME280;28860;43.212;27.934;2022-10-16T10:03:41;102090.53;;;21.71;32.03
43257;BME280;28860;43.212;27.934;2022-10-16T10:06:27;102096.72;;;21.95;31.69
43257;BME280;28860;43.212;27.934;2022-10-16T10:09:05;102104.75;;;21.86;31.56
43257;BME280;28860;43.212;27.934;2022-10-16T10:16:48;102098.22;;;21.99;31.90
43257;BME280;28860;43.212;27.934;2022-10-16T10:19:21;102101.38;;;22.04;31.33
43257;BME280;28860;43.212;27.934;2022-10-16T10:21:47;102092.63;;;22.10;30.81
43257;BME280;28860;43.212;27.934;2022-10-16T10:24:14;102102.34;;;21.93;31.22
43257;BME280;28860;43.212;27.934;2022-10-16T10:27:06;102091.63;;;22.11;31.27
43257;BME280;28860;43.212;27.934;2022-10-16T10:32:16;102081.44;;;22.34;30.70
43257;BME280;28860;43.212;27.934;2022-10-16T10:34:55;102081.69;;;22.31;31.00
43257;BME280;28860;43.212;27.934;2022-10-16T10:40:15;102085.72;;;22.37;31.45
43257;BME280;28860;43.212;27.934;2022-10-16T10:43:01;102086.88;;;22.56;30.57
43257;BME280;28860;43.212;27.934;2022-10-16T10:45:43;102082.44;;;22.74;30.62
43257;BME280;28860;43.212;27.934;2022-10-16T10:48:51;102079.31;;;22.89;30.39
43257;BME280;28860;43.212;27.934;2022-10-16T10:57:28;102071.41;;;23.06;29.70
43257;BME280;28860;43.212;27.934;2022-10-16T11:00:00;102080.22;;;23.19;29.63
43257;BME280;28860;43.212;27.934;2022-10-16T11:02:57;102075.75;;;23.18;29.61
43257;BME280;28860;43.212;27.934;2022-10-16T11:05:36;102064.09;;;23.16;30.03
43257;BME280;28860;43.212;27.934;2022-10-16T11:08:19;102060.03;;;23.20;29.61
43257;BME280;28860;43.212;27.934;2022-10-16T11:10:54;102066.09;;;23.24;29.39
43257;BME280;28860;43.212;27.934;2022-10-16T11:13:31;102065.69;;;23.28;28.88
43257;BME280;28860;43.212;27.934;2022-10-16T11:16:13;102055.78;;;23.37;28.74
43257;BME280;28860;43.212;27.934;2022-10-16T11:21:29;102044.09;;;23.45;28.41
43257;BME280;28860;43.212;27.934;2022-10-16T11:24:04;102077.66;;;23.57;28.82
43257;BME280;28860;43.212;27.934;2022-10-16T11:26:39;102064.22;;;23.44;28.32
43257;BME280;28860;43.212;27.934;2022-10-16T11:29:17;102068.44;;;23.48;28.39
43257;BME280;28860;43.212;27.934;2022-10-16T11:31:49;102062.97;;;23.48;28.84
43257;BME280;28860;43.212;27.934;2022-10-16T11:34:24;102068.72;;;23.45;28.21
43257;BME280;28860;43.212;27.934;2022-10-16T11:37:11;102067.56;;;23.38;28.54
43257;BME280;28860;43.212;27.934;2022-10-16T11:39:38;102077.47;;;23.58;28.47
43257;BME280;28860;43.212;27.934;2022-10-16T11:42:16;102075.19;;;23.64;28.37
43257;BME280;28860;43.212;27.934;2022-10-16T11:47:35;102071.69;;;23.81;28.63
43257;BME280;28860;43.212;27.934;2022-10-16T11:50:26;102067.81;;;23.74;28.99
43257;BME280;28860;43.212;27.934;2022-10-16T11:55:40;102062.34;;;23.74;28.64
43257;BME280;28860;43.212;27.934;2022-10-16T12:01:15;102059.41;;;24.05;28.20
43257;BME280;28860;43.212;27.934;2022-10-16T12:08:59;102058.19;;;24.17;27.89
43257;BME280;28860;43.212;27.934;2022-10-16T12:16:58;102070.47;;;24.13;28.18
43257;BME280;28860;43.212;27.934;2022-10-16T12:19:30;102074.63;;;24.27;28.32
43257;BME280;28860;43.212;27.934;2022-10-16T12:21:58;102063.16;;;24.04;28.15
43257;BME280;28860;43.212;27.934;2022-10-16T12:24:38;102057.66;;;24.14;27.63
43257;BME280;28860;43.212;27.934;2022-10-16T12:27:53;102078.69;;;24.13;27.68
43257;BME280;28860;43.212;27.934;2022-10-16T12:29:57;102079.84;;;24.01;27.80
43257;BME280;28860;43.212;27.934;2022-10-16T12:35:03;102088.34;;;24.17;27.93
43257;BME280;28860;43.212;27.934;2022-10-16T12:37:35;102088.72;;;24.33;27.49
43257;BME280;28860;43.212;27.934;2022-10-16T12:40:23;102083.28;;;24.23;26.81
43257;BME280;28860;43.212;27.934;2022-10-16T12:42:51;102083.44;;;24.21;26.60
43257;BME280;28860;43.212;27.934;2022-10-16T12:45:30;102093.06;;;24.25;27.34
43257;BME280;28860;43.212;27.934;2022-10-16T12:47:57;102104.28;;;24.32;27.00
43257;BME280;28860;43.212;27.934;2022-10-16T12:52:53;102095.72;;;24.17;27.53
43257;BME280;28860;43.212;27.934;2022-10-16T12:55:22;102093.69;;;24.19;27.53
43257;BME280;28860;43.212;27.934;2022-10-16T12:58:16;102100.44;;;24.25;27.47
43257;BME280;28860;43.212;27.934;2022-10-16T13:00:57;102102.31;;;24.24;27.75
43257;BME280;28860;43.212;27.934;2022-10-16T13:03:52;102107.97;;;24.23;28.18
43257;BME280;28860;43.212;27.934;2022-10-16T13:06:35;102098.03;;;24.12;27.90
43257;BME280;28860;43.212;27.934;2022-10-16T13:09:19;102105.81;;;24.07;27.73
43257;BME280;28860;43.212;27.934;2022-10-16T13:17:57;102099.22;;;23.70;28.16
43257;BME280;28860;43.212;27.934;2022-10-16T13:20:35;102103.13;;;23.57;28.11
43257;BME280;28860;43.212;27.934;2022-10-16T13:26:06;102120.00;;;23.43;28.20
43257;BME280;28860;43.212;27.934;2022-10-16T13:28:35;102108.19;;;23.32;28.45
43257;BME280;28860;43.212;27.934;2022-10-16T13:31:03;102105.25;;;23.14;28.92
43257;BME280;28860;43.212;27.934;2022-10-16T13:33:38;102099.38;;;23.09;28.75
43257;BME280;28860;43.212;27.934;2022-10-16T13:36:05;102114.16;;;22.97;28.94
43257;BME280;28860;43.212;27.934;2022-10-16T13:38:33;102084.91;;;22.87;29.22
43257;BME280;28860;43.212;27.934;2022-10-16T13:41:11;102117.31;;;22.92;28.88
43257;BME280;28860;43.212;27.934;2022-10-16T13:43:45;102111.25;;;22.79;28.97
43257;BME280;28860;43.212;27.934;2022-10-16T13:46:14;102114.94;;;22.58;29.07
43257;BME280;28860;43.212;27.934;2022-10-16T13:48:41;102120.09;;;22.61;28.71
43257;BME280;28860;43.212;27.934;2022-10-16T13:53:41;102123.81;;;22.50;29.18
43257;BME280;28860;43.212;27.934;2022-10-16T13:56:14;102131.75;;;22.32;29.41
43257;BME280;28860;43.212;27.934;2022-10-16T13:58:43;102126.28;;;22.32;29.34
43257;BME280;28860;43.212;27.934;2022-10-16T14:01:26;102144.59;;;22.41;29.34
43257;BME280;28860;43.212;27.934;2022-10-16T14:04:02;102119.38;;;22.28;29.45
43257;BME280;28860;43.212;27.934;2022-10-16T14:06:30;102142.13;;;22.38;29.53
43257;BME280;28860;43.212;27.934;2022-10-16T14:09:05;102136.34;;;22.31;29.41
43257;BME280;28860;43.212;27.934;2022-10-16T14:11:32;102133.47;;;22.33;29.40
43257;BME280;28860;43.212;27.934;2022-10-16T14:13:58;102134.44;;;22.01;29.84
43257;BME280;28860;43.212;27.934;2022-10-16T14:16:30;102107.91;;;21.91;29.58
43257;BME280;28860;43.212;27.934;2022-10-16T14:21:24;102128.97;;;22.01;29.76
43257;BME280;28860;43.212;27.934;2022-10-16T14:23:53;102148.03;;;22.12;29.44
43257;BME280;28860;43.212;27.934;2022-10-16T14:26:22;102136.09;;;22.13;29.23
43257;BME280;28860;43.212;27.934;2022-10-16T14:29:00;102148.09;;;22.01;29.34